Bookmark and Share
Track history (hours):
 

MV Alemania

Last reported at 2014-Apr-11 15:28 UTC. Time now 2014-Apr-18 18:20 UTC.
Position N 37°38' E 023°45'.

Length 133 m; draft 7.9 m.

Type: Cargo ship. MMSI: 304010613.

NotesDate/timePositionNaut miles runAvg speedWind from/ knotsBaromVisibWave heightAir tempDewpointWater temp
2014-Apr-11 15:28N 37°38' E 023°45'1011.3
2014-Apr-11 14:33N 37°46' E 023°37'1010.1
2014-Apr-11 13:33N 37°56' E 023°37'1 1.2
2014-Apr-11 12:29N 37°57' E 023°36'0 0.0
2014-Apr-11 11:28N 37°57' E 023°36'0 0.0
2014-Apr-11 10:28N 37°57' E 023°36'0 0.0
2014-Apr-11 09:34N 37°57' E 023°36'0 0.0
2014-Apr-11 08:33N 37°57' E 023°36'0 0.0
2014-Apr-11 07:33N 37°57' E 023°36'0 0.0
2014-Apr-11 06:20N 37°57' E 023°36'0 0.0
2014-Apr-11 05:26N 37°57' E 023°36'0 0.0
2014-Apr-11 04:31N 37°57' E 023°36'0 0.0
2014-Apr-11 03:25N 37°57' E 023°36'0 0.0
2014-Apr-11 02:30N 37°57' E 023°36'0 0.0
2014-Apr-11 01:30N 37°57' E 023°36'0 0.0
2014-Apr-11 00:30N 37°57' E 023°36'0 0.0
2014-Apr-10 23:32N 37°57' E 023°36'0 0.0
2014-Apr-10 22:32N 37°57' E 023°36'0 0.0
2014-Apr-10 21:32N 37°57' E 023°36'0 0.0
2014-Apr-10 20:31N 37°57' E 023°36'0 0.0
2014-Apr-10 19:25N 37°57' E 023°36'0 0.0
2014-Apr-10 18:32N 37°57' E 023°36'0 0.0
2014-Apr-10 17:32N 37°57' E 023°36'0 0.0
2014-Apr-10 16:33N 37°57' E 023°36'3 2.5
2014-Apr-10 15:33N 37°55' E 023°36'2 1.8
2014-Apr-10 14:31N 37°54' E 023°34'0 0.0
2014-Apr-10 13:22N 37°54' E 023°34'0 0.0
2014-Apr-10 12:34N 37°54' E 023°34'0 0.1
2014-Apr-10 11:33N 37°54' E 023°34'0 0.1
2014-Apr-10 10:15N 37°54' E 023°34'0 0.1
2014-Apr-10 09:23N 37°54' E 023°34'0 0.1
2014-Apr-10 08:26N 37°54' E 023°34'0 0.1
2014-Apr-10 07:25N 37°54' E 023°34'0 0.0
2014-Apr-10 06:31N 37°54' E 023°34'0 0.0
2014-Apr-10 05:33N 37°54' E 023°34'0 0.0
2014-Apr-10 04:30N 37°54' E 023°34'0 0.0
2014-Apr-10 03:33N 37°54' E 023°34'0 0.1
2014-Apr-10 02:29N 37°54' E 023°34'0 0.0
2014-Apr-10 01:23N 37°54' E 023°33'0 0.0
2014-Apr-10 00:28N 37°54' E 023°33'0 0.1
2014-Apr-09 23:28N 37°54' E 023°34'0 0.0
2014-Apr-09 22:21N 37°54' E 023°33'0 0.0
2014-Apr-09 21:33N 37°54' E 023°33'0 0.0
2014-Apr-09 20:21N 37°54' E 023°33'0 0.0
2014-Apr-09 19:14N 37°54' E 023°33'0 0.0
2014-Apr-09 18:26N 37°54' E 023°33'0 0.0
2014-Apr-09 17:31N 37°54' E 023°33'0 0.0
2014-Apr-09 16:13N 37°54' E 023°33'0 0.0
2014-Apr-09 15:33N 37°54' E 023°33'0 0.0
2014-Apr-09 14:33N 37°54' E 023°34'0 0.0
2014-Apr-09 13:33N 37°54' E 023°34'0 0.0
2014-Apr-09 12:33N 37°54' E 023°34'0 0.0
2014-Apr-09 11:33N 37°54' E 023°34'0 0.1
2014-Apr-09 10:33N 37°54' E 023°34'0 0.0
2014-Apr-09 09:33N 37°54' E 023°34'0 0.0
2014-Apr-09 08:33N 37°54' E 023°34'0 0.1
2014-Apr-09 07:33N 37°54' E 023°34'7 7.5
2014-Apr-09 06:33N 37°49' E 023°41'1110.7
2014-Apr-09 05:33N 37°39' E 023°46'3310.3
2014-Apr-09 02:22N 37°06' E 023°41'2310.5
2014-Apr-09 00:13N 36°45' E 023°30'  
2014-Apr-04 19:03N 35°51' E 014°52'0 0.0
2014-Apr-04 18:33N 35°51' E 014°52'0 0.1
2014-Apr-04 17:33N 35°51' E 014°52'0 0.0
2014-Apr-04 16:32N 35°51' E 014°52'0 0.0
2014-Apr-04 14:31N 35°51' E 014°52'0 0.0
2014-Apr-04 13:19N 35°51' E 014°52'0 0.0
2014-Apr-04 12:31N 35°51' E 014°52'0 0.0
2014-Apr-03 23:16N 35°51' E 014°52'0 0.0
2014-Apr-03 17:25N 35°51' E 014°52'0 0.0
2014-Apr-03 16:28N 35°51' E 014°52'0 0.0
2014-Apr-03 14:12N 35°51' E 014°52'0 0.0
2014-Apr-03 10:25N 35°51' E 014°52'0 0.0
2014-Apr-03 07:31N 35°51' E 014°52'0 0.0
2014-Apr-03 05:11N 35°51' E 014°52'0 0.0
2014-Apr-03 04:23N 35°51' E 014°52'0 0.0
2014-Apr-03 03:33N 35°51' E 014°52'0 0.0
2014-Apr-03 02:31N 35°51' E 014°52'0 0.0
2014-Apr-03 01:31N 35°51' E 014°52'0 0.0
2014-Apr-03 00:33N 35°51' E 014°52'0 0.0
2014-Apr-02 23:30N 35°51' E 014°52'0 0.0
2014-Apr-02 14:08N 35°51' E 014°52'0 0.0
2014-Apr-02 13:26N 35°51' E 014°52'0 0.0
2014-Apr-02 12:31N 35°51' E 014°52'0 0.0
2014-Apr-02 11:31N 35°51' E 014°52'0 0.0
2014-Apr-02 10:24N 35°51' E 014°52'0 0.0
2014-Apr-02 06:29N 35°51' E 014°52'0 0.0
2014-Apr-02 05:28N 35°51' E 014°52'0 0.0
2014-Apr-02 04:31N 35°51' E 014°52'0 0.0
2014-Apr-02 03:27N 35°51' E 014°52'0 0.0
2014-Apr-02 00:32N 35°51' E 014°52'0 0.0
2014-Apr-01 23:32N 35°51' E 014°52'0 0.0
2014-Apr-01 22:19N 35°51' E 014°52'0 0.0
2014-Apr-01 21:13N 35°51' E 014°52'0 0.0
2014-Apr-01 20:33N 35°51' E 014°52'0 0.0
2014-Apr-01 19:33N 35°51' E 014°52'0 0.0
2014-Apr-01 18:33N 35°51' E 014°52'0 0.0
2014-Apr-01 17:29N 35°51' E 014°52'0 0.0
2014-Apr-01 16:32N 35°51' E 014°52'0 0.0
2014-Apr-01 15:31N 35°51' E 014°52'  

Dump ship's entire track history

sailing weather and tide predictions

MV Alemania — V2OG7 — position and weather